Time;durP1;ratioP1;P1;durP2;ratioP2;P2;SDS_P1;SDS_P2;PMS_P1;PMS_P2;Temp;Humidity;BMP_temperature;BMP_pressure;BME280_temperature;BME280_humidity;BME280_pressure;Samples;Min_cycle;Max_cycle;Signal;HPM_P1;HPM_P2
2021/08/09 00:00:39;;;;;;;11.68;9.93;;;;;;;18.43;57.24;98861.03;5038364;28;20029;-51
2021/08/09 00:03:05;;;;;;;5.03;2.13;;;;;;;18.28;56.92;98857.13;5053405;28;20029;-51
2021/08/09 00:05:32;;;;;;;3.72;2.33;;;;;;;17.67;57.93;98859.72;5038142;28;20031;-51
2021/08/09 00:07:58;;;;;;;5.43;2.72;;;;;;;16.98;59.59;98862.50;5038159;28;20022;-51
2021/08/09 00:10:23;;;;;;;4.30;1.55;;;;;;;16.64;60.62;98872.19;5038381;28;20033;-52
2021/08/09 00:12:50;;;;;;;8.15;3.22;;;;;;;16.55;61.31;98866.44;5038046;28;20499;-51
2021/08/09 00:15:16;;;;;;;8.80;6.57;;;;;;;16.76;61.44;98865.81;5038266;28;20096;-51
2021/08/09 00:17:41;;;;;;;13.90;9.95;;;;;;;16.97;61.07;98868.88;5038017;28;20506;-52
2021/08/09 00:20:08;;;;;;;8.70;4.93;;;;;;;17.15;60.73;98870.53;5037883;28;20029;-52
2021/08/09 00:22:34;;;;;;;9.65;3.25;;;;;;;17.36;60.48;98871.66;5038180;28;20099;-51
2021/08/09 00:24:59;;;;;;;13.13;4.10;;;;;;;17.36;59.70;98869.84;5053311;28;20037;-51
2021/08/09 00:27:25;;;;;;;19.42;17.50;;;;;;;17.29;59.84;98871.81;5037894;28;20025;-52
2021/08/09 00:29:50;;;;;;;7.85;3.83;;;;;;;17.41;59.73;98871.75;5037914;28;20030;-52
2021/08/09 00:32:18;;;;;;;5.32;3.83;;;;;;;17.44;59.24;98873.13;5037866;28;20495;-52
2021/08/09 00:34:44;;;;;;;18.27;14.77;;;;;;;17.20;59.26;98878.56;5038087;28;20450;-51
2021/08/09 00:37:10;;;;;;;5.30;4.47;;;;;;;16.93;59.97;98878.34;5037858;28;20048;-51
2021/08/09 00:39:36;;;;;;;23.20;18.88;;;;;;;16.86;60.45;98875.03;5037767;28;20097;-51
2021/08/09 00:42:01;;;;;;;12.38;8.40;;;;;;;16.82;60.59;98866.75;5037937;28;20030;-51
2021/08/09 00:44:30;;;;;;;6.38;4.47;;;;;;;16.83;60.45;98860.41;5037788;28;20499;-52
2021/08/09 00:46:55;;;;;;;7.45;4.78;;;;;;;16.55;60.77;98861.94;5053080;28;20022;-51
2021/08/09 00:49:21;;;;;;;5.65;3.40;;;;;;;16.37;61.63;98865.56;5036074;28;20022;-52
2021/08/09 00:51:48;;;;;;;16.83;8.48;;;;;;;16.52;62.11;98867.75;5034201;28;20033;-54
2021/08/09 00:54:13;;;;;;;6.68;4.70;;;;;;;16.66;61.51;98872.75;5034631;28;20025;-54
2021/08/09 00:56:40;;;;;;;6.93;2.88;;;;;;;16.47;61.33;98874.78;5034423;28;20515;-53
2021/08/09 00:59:07;;;;;;;9.18;5.13;;;;;;;16.21;61.82;98866.28;5034725;28;20053;-54
2021/08/09 01:01:32;;;;;;;4.63;1.83;;;;;;;15.98;62.41;98867.91;5034462;28;20373;-54
2021/08/09 01:03:58;;;;;;;8.30;4.45;;;;;;;15.73;62.97;98862.03;5034286;28;20101;-55
2021/08/09 01:06:24;;;;;;;15.00;13.38;;;;;;;15.56;63.63;98864.53;5034288;28;20056;-54
2021/08/09 01:09:15;;;;;;;5.07;3.00;;;;;;;15.45;64.35;98863.47;5034288;28;20026;-54
2021/08/09 01:11:41;;;;;;;6.80;5.55;;;;;;;15.54;64.38;98862.13;5033807;28;20579;-54
2021/08/09 01:14:16;;;;;;;26.92;24.35;;;;;;;15.64;64.23;98866.84;5034451;28;20034;-54
2021/08/09 01:16:43;;;;;;;;;;;;;;;15.83;63.56;98861.47;5034596;28;20108;-54
2021/08/09 01:19:16;;;;;;;5.65;3.70;;;;;;;15.89;63.40;98861.34;5034333;28;20013;-54
2021/08/09 01:21:44;;;;;;;3.70;1.83;;;;;;;15.80;63.06;98859.31;5033589;28;20046;-54
2021/08/09 01:24:46;;;;;;;17.05;15.18;;;;;;;15.36;64.20;98870.94;5034007;28;20022;-54
2021/08/09 01:27:23;;;;;;;7.90;4.32;;;;;;;14.91;65.95;98868.75;5023688;28;20037;-53
2021/08/09 01:29:49;;;;;;;4.18;3.08;;;;;;;14.52;67.05;98868.16;5049177;28;20109;-54
2021/08/09 01:32:19;;;;;;;7.15;4.80;;;;;;;14.34;67.35;98879.53;5033768;28;20328;-54
2021/08/09 01:34:46;;;;;;;11.88;10.68;;;;;;;14.15;67.86;98878.72;5033835;28;20056;-54
2021/08/09 01:37:12;;;;;;;15.90;14.50;;;;;;;14.25;67.80;98885.34;5033778;28;20373;-54
2021/08/09 01:39:39;;;;;;;6.10;2.70;;;;;;;14.42;67.81;98882.91;5033664;28;20032;-54
2021/08/09 01:42:05;;;;;;;14.65;13.30;;;;;;;14.52;67.31;98888.50;5033602;28;20122;-54
2021/08/09 01:44:31;;;;;;;11.30;6.05;;;;;;;14.52;67.21;98886.66;5033615;28;20484;-54
2021/08/09 01:46:57;;;;;;;6.93;1.98;;;;;;;14.44;67.30;98889.59;5033523;28;20025;-54
2021/08/09 01:49:23;;;;;;;6.38;3.40;;;;;;;14.31;67.77;98887.91;5032211;28;20024;-55
2021/08/09 01:51:50;;;;;;;5.50;5.00;;;;;;;14.22;68.07;98889.22;5033424;28;20056;-53
2021/08/09 01:54:16;;;;;;;7.38;2.03;;;;;;;14.08;69.23;98880.63;5033523;28;20029;-54
2021/08/09 01:56:42;;;;;;;14.40;8.63;;;;;;;14.10;69.03;98883.84;5033377;28;20051;-55
2021/08/09 01:59:08;;;;;;;11.48;6.18;;;;;;;14.38;68.50;98885.19;5033561;28;20155;-54
2021/08/09 02:01:34;;;;;;;15.65;9.10;;;;;;;14.76;68.26;98884.97;5015161;28;20033;-54
2021/08/09 02:04:01;;;;;;;10.82;9.02;;;;;;;15.22;66.76;98885.38;5033190;28;20025;-54
2021/08/09 02:06:26;;;;;;;5.65;3.65;;;;;;;15.24;65.66;98887.81;5033117;28;20120;-54
2021/08/09 02:08:52;;;;;;;8.13;5.60;;;;;;;15.07;65.79;98883.16;5048558;28;20101;-54
2021/08/09 02:11:25;;;;;;;13.90;11.43;;;;;;;14.82;66.45;98891.19;5033123;28;20036;-54
2021/08/09 02:13:55;;;;;;;11.45;8.85;;;;;;;14.64;66.97;98894.66;5033149;28;20017;-54
2021/08/09 02:16:36;;;;;;;10.38;6.47;;;;;;;14.63;67.38;98894.88;5048354;28;20033;-55
2021/08/09 02:19:06;;;;;;;40.38;36.60;;;;;;;14.76;67.04;98884.97;5048328;28;20033;-54
2021/08/09 02:21:39;;;;;;;4.28;3.88;;;;;;;14.93;66.31;98884.34;5032760;28;20049;-54
2021/08/09 02:24:09;;;;;;;15.35;13.52;;;;;;;14.97;65.72;98888.19;5031569;28;20446;-55
2021/08/09 02:26:42;;;;;;;50.33;45.22;;;;;;;14.95;65.66;98890.22;5048164;28;20103;-54
2021/08/09 02:29:16;;;;;;;4.88;3.40;;;;;;;14.75;65.98;98901.88;5048129;28;20064;-54
2021/08/09 02:31:45;;;;;;;5.45;1.75;;;;;;;14.37;67.21;98897.59;5032834;28;20040;-54
2021/08/09 02:34:13;;;;;;;8.02;2.88;;;;;;;14.09;68.09;98897.28;5032704;28;20063;-54
2021/08/09 02:36:42;;;;;;;44.58;39.78;;;;;;;13.93;69.42;98888.09;5032542;28;20071;-54
2021/08/09 02:39:08;;;;;;;22.88;20.65;;;;;;;13.85;69.11;98899.72;5032605;28;20048;-53
2021/08/09 02:41:34;;;;;;;4.18;2.70;;;;;;;13.96;69.08;98898.19;5032551;28;20034;-54
2021/08/09 02:44:00;;;;;;;10.75;7.07;;;;;;;14.07;69.06;98894.84;5031155;28;20511;-54
2021/08/09 02:46:28;;;;;;;8.38;6.43;;;;;;;14.16;68.53;98893.53;5032412;28;20029;-54
2021/08/09 02:48:54;;;;;;;4.47;2.83;;;;;;;14.15;68.78;98891.13;5032414;28;20025;-54
2021/08/09 02:51:21;;;;;;;11.63;5.40;;;;;;;14.14;68.82;98885.00;5032391;28;20025;-53
2021/08/09 02:53:49;;;;;;;6.22;3.42;;;;;;;14.15;68.99;98884.00;5032376;28;20064;-53
2021/08/09 02:56:18;;;;;;;19.40;13.20;;;;;;;14.35;68.53;98880.34;5032356;28;20072;-54
2021/08/09 02:58:44;;;;;;;9.88;5.25;;;;;;;14.52;67.65;98881.38;5032515;28;20384;-54
2021/08/09 03:01:10;;;;;;;5.03;3.40;;;;;;;14.50;67.42;98888.69;5032451;28;20033;-54
2021/08/09 03:03:38;;;;;;;16.17;14.60;;;;;;;14.42;67.86;98885.56;5047448;28;20034;-54
2021/08/09 03:06:07;;;;;;;5.75;4.85;;;;;;;14.39;67.86;98886.81;5032078;28;20029;-54
2021/08/09 03:08:33;;;;;;;20.17;18.25;;;;;;;14.52;67.64;98883.22;5032077;28;20040;-54
2021/08/09 03:10:59;;;;;;;5.35;4.18;;;;;;;14.72;66.91;98883.00;5032066;28;20014;-54
2021/08/09 03:13:25;;;;;;;36.80;33.22;;;;;;;14.80;66.54;98887.97;5046590;28;20041;-54
2021/08/09 03:15:53;;;;;;;14.82;13.27;;;;;;;14.78;66.37;98887.41;5031938;28;20070;-54
2021/08/09 03:18:18;;;;;;;9.90;8.93;;;;;;;14.81;66.47;98886.13;5047347;28;20514;-54
2021/08/09 03:20:44;;;;;;;9.82;8.82;;;;;;;14.98;65.94;98895.88;5031653;28;20096;-54
2021/08/09 03:23:10;;;;;;;7.22;4.90;;;;;;;15.09;65.61;98882.91;5032111;28;20395;-54
2021/08/09 03:25:37;;;;;;;6.57;4.20;;;;;;;14.96;65.59;98876.00;5031831;28;20061;-54
2021/08/09 03:28:07;;;;;;;6.10;4.25;;;;;;;14.67;66.39;98875.75;5032064;28;20022;-54
2021/08/09 03:30:33;;;;;;;36.63;32.97;;;;;;;14.52;66.99;98878.72;5030475;28;20025;-54
2021/08/09 03:32:58;;;;;;;6.63;3.70;;;;;;;14.78;66.62;98887.41;5030462;28;20025;-54
2021/08/09 03:35:24;;;;;;;16.83;15.02;;;;;;;14.96;65.90;98879.44;5031718;28;20025;-54
2021/08/09 03:37:50;;;;;;;4.63;4.10;;;;;;;14.96;65.53;98876.00;5032012;28;20060;-53
2021/08/09 03:40:15;;;;;;;3.97;3.15;;;;;;;14.93;65.59;98876.41;5031713;28;20034;-54
2021/08/09 03:42:41;;;;;;;6.47;4.32;;;;;;;14.86;65.58;98881.81;5047018;28;20032;-53
2021/08/09 03:45:08;;;;;;;7.88;5.28;;;;;;;14.68;66.17;98887.91;5031644;28;20033;-54
2021/08/09 03:47:37;;;;;;;5.00;1.65;;;;;;;14.49;66.65;98900.31;5046933;28;20032;-54
2021/08/09 03:50:03;;;;;;;5.68;1.85;;;;;;;14.40;67.35;98896.34;5031526;28;20025;-53
2021/08/09 03:52:29;;;;;;;24.33;20.88;;;;;;;14.30;67.34;98896.84;5031830;28;20022;-53
2021/08/09 03:54:54;;;;;;;7.72;3.33;;;;;;;14.28;67.99;98903.38;5046917;28;20389;-53
2021/08/09 03:57:20;;;;;;;7.28;5.78;;;;;;;14.18;68.08;98896.78;5031596;28;20100;-54
2021/08/09 03:59:45;;;;;;;6.07;2.40;;;;;;;14.10;68.89;98899.69;5046804;28;20116;-54
2021/08/09 04:02:15;;;;;;;10.43;7.20;;;;;;;14.04;68.66;98895.28;5030128;28;20419;-55
2021/08/09 04:04:41;;;;;;;8.43;6.93;;;;;;;14.07;68.92;98900.13;5031427;28;20857;-54
2021/08/09 04:07:07;;;;;;;13.85;9.48;;;;;;;14.26;68.46;98897.50;5031532;28;20369;-53
2021/08/09 04:09:33;;;;;;;10.32;7.53;;;;;;;14.51;68.03;98884.25;5031702;28;20096;-54
2021/08/09 04:11:58;;;;;;;6.75;1.90;;;;;;;14.75;67.22;98880.72;5046754;28;20453;-54
2021/08/09 04:14:24;;;;;;;3.90;1.83;;;;;;;14.74;66.78;98883.59;5046770;28;20040;-53
2021/08/09 04:16:49;;;;;;;6.25;5.32;;;;;;;14.56;67.16;98889.69;5031435;28;20017;-54
2021/08/09 04:19:15;;;;;;;4.20;1.83;;;;;;;14.43;67.52;98885.34;5031607;28;20040;-53
2021/08/09 04:21:42;;;;;;;7.30;5.45;;;;;;;14.31;67.75;98889.75;5046359;28;20483;-54
2021/08/09 04:24:08;;;;;;;8.82;4.70;;;;;;;14.15;68.36;98896.41;5047495;28;20479;-54
2021/08/09 04:26:33;;;;;;;5.68;3.42;;;;;;;14.05;68.57;98893.47;5050427;28;20083;-54
2021/08/09 04:29:00;;;;;;;47.53;43.17;;;;;;;14.04;69.14;98902.38;5035051;28;20017;-54
2021/08/09 04:31:25;;;;;;;5.95;3.40;;;;;;;14.15;68.53;98907.75;5034964;28;20021;-54
2021/08/09 04:33:51;;;;;;;7.57;4.15;;;;;;;14.20;68.37;98904.47;5034937;28;20101;-54
2021/08/09 04:36:17;;;;;;;3.85;2.17;;;;;;;14.11;68.37;98901.31;5034952;28;20033;-54
2021/08/09 04:38:43;;;;;;;3.00;2.00;;;;;;;14.04;69.10;98918.22;5034842;28;20025;-54
2021/08/09 04:41:11;;;;;;;7.07;4.90;;;;;;;14.03;68.82;98914.78;5034765;28;20030;-54
2021/08/09 04:43:38;;;;;;;21.92;19.90;;;;;;;14.08;68.87;98922.84;5034693;28;20380;-53
2021/08/09 04:46:05;;;;;;;8.57;2.22;;;;;;;14.09;68.52;98918.38;5034779;28;20526;-54
2021/08/09 04:48:31;;;;;;;13.32;11.60;;;;;;;14.07;69.13;98925.72;5033434;28;20121;-55
2021/08/09 04:50:57;;;;;;;3.92;2.10;;;;;;;14.07;68.86;98928.34;5049976;28;20033;-54
2021/08/09 04:53:23;;;;;;;10.88;3.03;;;;;;;14.08;69.11;98928.13;5049906;28;20033;-53
2021/08/09 04:55:49;;;;;;;18.88;16.60;;;;;;;14.17;68.81;98923.38;5034588;28;20029;-54
2021/08/09 04:58:15;;;;;;;23.73;21.42;;;;;;;14.35;68.42;98931.31;5034503;28;20026;-54
2021/08/09 05:00:41;;;;;;;8.05;5.70;;;;;;;14.91;68.42;98933.97;5049791;28;20407;-54
2021/08/09 05:03:06;;;;;;;14.48;10.27;;;;;;;15.71;66.46;98938.16;5034509;28;20486;-54
2021/08/09 05:05:32;;;;;;;14.40;9.55;;;;;;;16.43;66.74;98931.91;5034438;28;20025;-54
2021/08/09 05:07:58;;;;;;;9.20;8.15;;;;;;;16.48;65.45;98922.22;5034427;28;20024;-54
2021/08/09 05:10:25;;;;;;;5.63;3.58;;;;;;;16.22;64.83;98922.69;5033002;28;20028;-54
2021/08/09 05:12:51;;;;;;;10.23;2.55;;;;;;;15.70;65.08;98920.69;5034243;28;20061;-53
2021/08/09 05:15:17;;;;;;;9.55;6.53;;;;;;;15.36;65.63;98928.31;5034132;28;20040;-54
2021/08/09 05:17:46;;;;;;;18.10;9.95;;;;;;;15.20;65.82;98931.59;5034160;28;20018;-55
2021/08/09 05:20:12;;;;;;;76.05;68.75;;;;;;;15.32;66.42;98938.53;5033876;28;20021;-54
2021/08/09 05:22:38;;;;;;;22.08;16.67;;;;;;;15.68;66.12;98926.22;5033994;28;20028;-54
2021/08/09 05:25:08;;;;;;;52.05;47.22;;;;;;;16.18;65.24;98936.41;5033980;28;20025;-54
2021/08/09 05:27:34;;;;;;;9.88;8.23;;;;;;;16.64;63.92;98930.47;5034209;28;20025;-54
2021/08/09 05:29:59;;;;;;;13.80;12.10;;;;;;;17.10;62.61;98934.91;5033980;28;20022;-53
2021/08/09 05:32:25;;;;;;;10.38;7.68;;;;;;;17.56;61.02;98942.84;5032805;28;20040;-54
2021/08/09 05:34:51;;;;;;;12.43;8.65;;;;;;;17.85;60.64;98946.28;5033769;28;20037;-51
2021/08/09 05:37:16;;;;;;;17.27;13.43;;;;;;;18.43;60.91;98938.09;5033141;28;20113;-52
2021/08/09 05:39:42;;;;;;;5.70;3.55;;;;;;;18.83;58.57;98929.84;5032406;28;20105;-52
2021/08/09 05:42:08;;;;;;;10.57;8.07;;;;;;;19.44;57.03;98940.34;5033576;28;20065;-52
2021/08/09 05:44:34;;;;;;;7.38;2.88;;;;;;;19.45;55.51;98941.16;5049052;28;20026;-52
2021/08/09 05:47:00;;;;;;;81.22;67.28;;;;;;;18.80;56.07;98948.19;5033555;28;20087;-52
2021/08/09 05:49:25;;;;;;;63.20;56.55;;;;;;;18.41;56.98;98951.63;5048806;28;20053;-51
2021/08/09 05:51:54;;;;;;;155.40;139.82;;;;;;;18.38;56.92;98957.44;5033756;28;20491;-52
2021/08/09 05:54:19;;;;;;;38.92;30.25;;;;;;;18.15;57.08;98959.25;5033494;28;20028;-52
2021/08/09 05:56:45;;;;;;;14.85;13.35;;;;;;;18.37;56.67;98953.16;5048734;28;20112;-52
2021/08/09 05:59:14;;;;;;;13.70;7.68;;;;;;;18.20;55.92;98957.69;5033344;28;20079;-52
2021/08/09 06:01:39;;;;;;;5.32;3.45;;;;;;;18.08;56.86;98958.59;5033391;28;20553;-51
2021/08/09 06:04:05;;;;;;;13.98;7.88;;;;;;;18.38;56.66;98961.94;5033254;28;20037;-52
2021/08/09 06:06:31;;;;;;;7.32;3.53;;;;;;;19.14;54.94;98954.16;5048528;28;20026;-52
2021/08/09 06:08:56;;;;;;;4.13;1.70;;;;;;;19.58;53.23;98954.06;5048527;28;20055;-52
2021/08/09 06:11:22;;;;;;;10.23;2.05;;;;;;;19.45;53.69;98944.59;5048491;28;20026;-51
2021/08/09 06:13:48;;;;;;;6.18;2.25;;;;;;;19.48;53.60;98948.66;5033035;28;20044;-52
2021/08/09 06:16:14;;;;;;;7.68;3.10;;;;;;;19.22;54.00;98936.94;5032986;28;20026;-52
2021/08/09 06:18:40;;;;;;;7.30;2.15;;;;;;;18.96;54.38;98936.66;5031684;28;20037;-52
2021/08/09 06:21:06;;;;;;;12.88;8.00;;;;;;;18.42;55.56;98947.91;5032617;28;20124;-52
2021/08/09 06:23:31;;;;;;;7.78;2.78;;;;;;;18.19;56.37;98951.59;5032804;28;20040;-51
2021/08/09 06:25:57;;;;;;;5.57;3.67;;;;;;;18.27;56.65;98939.72;5032889;28;20138;-52
2021/08/09 06:28:23;;;;;;;7.80;4.88;;;;;;;18.68;56.22;98945.59;5033116;28;20021;-52
2021/08/09 06:30:49;;;;;;;7.72;6.03;;;;;;;19.54;54.24;98945.78;5048123;28;20403;-52
2021/08/09 06:33:15;;;;;;;4.00;3.10;;;;;;;20.34;51.71;98940.53;5047994;28;20032;-52
2021/08/09 06:35:41;;;;;;;12.00;4.60;;;;;;;20.35;51.40;98944.00;5031363;28;20032;-52
2021/08/09 06:38:08;;;;;;;11.77;5.15;;;;;;;20.06;51.79;98947.03;5032619;28;20055;-52
2021/08/09 06:40:36;;;;;;;9.27;2.22;;;;;;;19.93;52.21;98950.91;5032575;28;20483;-52
2021/08/09 06:43:03;;;;;;;9.43;6.32;;;;;;;20.29;52.08;98950.34;5032753;28;20025;-52
2021/08/09 06:45:30;;;;;;;7.30;3.67;;;;;;;20.96;50.22;98948.81;5047778;28;20025;-52
2021/08/09 06:47:56;;;;;;;7.70;2.78;;;;;;;21.17;49.78;98947.03;5031570;28;20104;-52
2021/08/09 06:50:22;;;;;;;7.63;4.88;;;;;;;21.11;49.43;98948.09;5031064;28;20112;-52
2021/08/09 06:52:48;;;;;;;5.65;1.63;;;;;;;21.19;49.23;98947.56;5032320;28;20400;-51
2021/08/09 06:55:13;;;;;;;8.55;3.83;;;;;;;21.66;47.98;98946.59;5032561;28;20025;-52
2021/08/09 06:57:39;;;;;;;3.03;1.73;;;;;;;22.64;45.54;98951.84;5032360;28;20113;-52
2021/08/09 07:00:07;;;;;;;6.10;2.95;;;;;;;22.83;44.36;98955.47;5032232;28;20442;-52
2021/08/09 07:02:36;;;;;;;4.55;3.00;;;;;;;22.66;44.69;98953.16;5032111;28;20081;-52
2021/08/09 07:05:02;;;;;;;2.33;1.58;;;;;;;22.94;43.95;98958.94;5047516;28;20040;-52
2021/08/09 07:07:28;;;;;;;4.40;2.42;;;;;;;22.94;43.91;98953.59;5032139;28;20025;-52
2021/08/09 07:09:53;;;;;;;5.50;2.10;;;;;;;22.61;44.48;98945.13;5047394;28;20087;-52
2021/08/09 07:12:19;;;;;;;11.77;4.47;;;;;;;22.23;45.04;98959.91;5047380;28;20026;-51
2021/08/09 07:14:45;;;;;;;4.57;2.13;;;;;;;22.22;45.65;98963.66;5032113;28;20060;-51
2021/08/09 07:17:10;;;;;;;6.45;1.83;;;;;;;22.58;45.60;98964.41;5047277;28;20029;-51
2021/08/09 07:19:37;;;;;;;7.15;2.92;;;;;;;23.62;43.96;98957.47;5032250;28;20451;-52
2021/08/09 07:22:04;;;;;;;12.93;2.97;;;;;;;24.39;42.63;98959.50;5031695;28;20124;-52
2021/08/09 07:24:29;;;;;;;9.32;2.70;;;;;;;25.35;41.40;98961.31;5031928;28;20021;-52
2021/08/09 07:26:55;;;;;;;12.50;6.00;;;;;;;26.24;39.12;98971.19;5047165;28;20043;-52
2021/08/09 07:29:21;;;;;;;8.30;2.88;;;;;;;26.76;37.82;98974.53;5031870;28;20026;-52
2021/08/09 07:31:47;;;;;;;7.57;2.88;;;;;;;26.98;37.21;98970.31;5047034;28;20384;-52
2021/08/09 07:34:13;;;;;;;8.73;2.40;;;;;;;27.08;36.53;98972.81;5047386;28;20026;-52
2021/08/09 07:36:39;;;;;;;11.77;3.40;;;;;;;27.40;35.83;98982.63;5030513;28;20083;-52
2021/08/09 07:39:04;;;;;;;12.10;4.88;;;;;;;27.08;36.36;98983.56;5031637;28;20403;-52
2021/08/09 07:41:30;;;;;;;7.00;3.75;;;;;;;27.03;36.71;98995.28;5030434;28;20116;-52
2021/08/09 07:43:56;;;;;;;10.23;3.45;;;;;;;26.88;36.28;98999.09;5031905;28;20066;-52
2021/08/09 07:46:24;;;;;;;7.80;1.90;;;;;;;26.59;37.79;99001.28;5030286;28;20407;-51
2021/08/09 07:48:50;;;;;;;5.75;2.55;;;;;;;26.58;38.70;98992.41;5031620;28;20018;-51
2021/08/09 07:51:16;;;;;;;6.47;2.15;;;;;;;26.65;38.86;98994.69;5031622;28;20040;-52
2021/08/09 07:53:42;;;;;;;8.05;1.92;;;;;;;26.66;38.92;98988.19;5031652;28;20040;-52
2021/08/09 07:56:07;;;;;;;4.55;1.70;;;;;;;26.77;38.46;98986.91;5031815;28;20025;-52
2021/08/09 07:58:36;;;;;;;10.88;5.13;;;;;;;26.85;38.35;98991.59;5031658;28;20025;-52
2021/08/09 08:01:02;;;;;;;4.70;1.85;;;;;;;27.01;38.35;98994.78;5035828;28;20048;-52
2021/08/09 08:03:28;;;;;;;4.20;1.40;;;;;;;27.54;37.93;98981.78;5035460;28;20475;-52
2021/08/09 08:05:53;;;;;;;8.52;2.95;;;;;;;28.41;36.05;98979.63;5035446;28;20032;-52
2021/08/09 08:08:19;;;;;;;3.05;1.73;;;;;;;28.91;35.27;98978.56;5035740;28;20018;-51
2021/08/09 08:10:45;;;;;;;5.78;1.95;;;;;;;28.73;35.41;98983.91;5035607;28;20494;-52
2021/08/09 08:13:10;;;;;;;6.65;3.40;;;;;;;28.39;36.25;98987.25;5035377;28;20021;-52
2021/08/09 08:15:36;;;;;;;10.25;2.53;;;;;;;29.27;34.82;98983.72;5035732;28;20044;-51
2021/08/09 08:18:02;;;;;;;8.55;2.55;;;;;;;29.64;34.08;98995.00;5050815;28;20110;-51
2021/08/09 08:20:28;;;;;;;8.95;2.40;;;;;;;29.14;34.45;98993.59;5034970;28;20533;-52
2021/08/09 08:22:56;;;;;;;22.38;3.33;;;;;;;28.85;35.24;98984.09;5035199;28;20029;-52
2021/08/09 08:25:22;;;;;;;34.45;9.50;;;;;;;28.79;35.39;98979.16;5035130;28;20112;-51
2021/08/09 08:27:48;;;;;;;64.43;3.78;;;;;;;28.66;35.24;98983.59;5035110;28;20112;-52
2021/08/09 08:30:15;;;;;;;26.73;3.38;;;;;;;28.52;35.62;98982.91;5050319;28;20446;-51
2021/08/09 08:32:42;;;;;;;13.23;2.53;;;;;;;28.62;35.04;98990.72;5034985;28;20029;-52
2021/08/09 08:35:08;;;;;;;12.23;3.60;;;;;;;28.43;35.38;98994.44;5034897;28;20112;-51
2021/08/09 08:37:34;;;;;;;10.90;2.53;;;;;;;28.44;35.00;98989.81;5034953;28;20494;-51
2021/08/09 08:40:00;;;;;;;7.53;1.38;;;;;;;28.26;34.95;99002.44;5034877;28;20075;-52
2021/08/09 08:42:26;;;;;;;8.43;3.30;;;;;;;27.59;36.11;99003.25;5034716;28;20029;-52
2021/08/09 08:44:51;;;;;;;18.80;9.30;;;;;;;27.82;36.54;99002.13;5050215;28;20031;-52
2021/08/09 08:47:20;;;;;;;6.47;2.05;;;;;;;28.95;34.98;98999.22;5034722;28;20179;-51
2021/08/09 08:49:47;;;;;;;2.45;1.55;;;;;;;30.38;32.68;98996.66;5034964;28;20029;-52
2021/08/09 08:52:15;;;;;;;13.30;2.72;;;;;;;32.15;30.35;99001.38;5034801;28;20036;-51
2021/08/09 08:54:41;;;;;;;4.82;1.77;;;;;;;34.16;27.95;98999.25;5034836;28;20083;-51
2021/08/09 08:57:21;;;;;;;11.20;9.57;;;;;;;35.59;25.93;98999.00;5033233;28;20528;-52
2021/08/09 08:59:47;;;;;;;5.28;2.05;;;;;;;36.04;25.12;99005.72;5033285;28;20038;-51
2021/08/09 09:02:33;;;;;;;4.20;1.83;;;;;;;36.28;24.53;99001.06;5034383;28;20029;-51
2021/08/09 09:05:17;;;;;;;10.15;4.28;;;;;;;36.18;24.66;99002.44;5034337;28;20032;-50
2021/08/09 09:07:45;;;;;;;12.32;3.92;;;;;;;35.64;25.06;99006.91;5034345;28;20030;-49
2021/08/09 09:10:29;;;;;;;4.50;1.17;;;;;;;35.94;24.85;99011.75;5033808;28;20017;-49
2021/08/09 09:13:24;;;;;;;4.55;1.67;;;;;;;35.91;25.01;99016.00;5034084;28;20116;-50
2021/08/09 09:16:03;;;;;;;9.52;1.60;;;;;;;36.29;24.49;99017.09;5021451;28;20044;-51
2021/08/09 09:18:43;;;;;;;3.72;1.50;;;;;;;37.34;23.93;99017.50;5034162;28;20037;-51
2021/08/09 09:21:23;;;;;;;5.18;1.80;;;;;;;38.45;22.14;99017.13;5033875;28;20053;-52
2021/08/09 09:23:49;;;;;;;8.55;1.50;;;;;;;38.51;22.38;99010.91;5033957;28;20053;-52
2021/08/09 09:26:33;;;;;;;4.30;1.35;;;;;;;37.98;22.54;99009.25;5034057;28;20506;-52
2021/08/09 09:29:06;;;;;;;4.55;1.60;;;;;;;37.88;23.02;99012.66;5032693;28;20025;-52
2021/08/09 09:31:32;;;;;;;1.65;1.23;;;;;;;37.81;22.89;99022.75;5034064;28;20112;-51
2021/08/09 09:34:05;;;;;;;8.25;3.30;;;;;;;37.40;23.22;99026.19;5049163;28;20109;-51
2021/08/09 09:36:52;;;;;;;4.77;1.50;;;;;;;36.56;23.91;99022.59;5049256;28;20033;-52
2021/08/09 09:39:39;;;;;;;5.88;1.67;;;;;;;35.24;25.37;99015.44;5033827;28;20080;-52
2021/08/09 09:42:07;;;;;;;2.45;1.60;;;;;;;34.35;26.62;99023.06;5032341;28;20049;-52
2021/08/09 09:44:37;;;;;;;4.72;1.60;;;;;;;34.01;27.38;99022.59;5033779;28;20096;-52
2021/08/09 09:47:21;;;;;;;4.88;1.58;;;;;;;33.93;27.20;99028.97;5033685;28;20022;-52
2021/08/09 09:49:49;;;;;;;10.10;4.47;;;;;;;33.82;27.61;99031.41;5048943;28;20407;-52
2021/08/09 09:52:39;;;;;;;5.97;1.48;;;;;;;33.66;27.84;99022.38;5033569;28;20033;-52
2021/08/09 09:55:10;;;;;;;4.25;1.48;;;;;;;33.95;27.91;99026.69;5033427;28;20025;-49
2021/08/09 09:57:37;;;;;;;4.28;1.92;;;;;;;35.01;26.51;99019.63;5033452;28;20029;-49
2021/08/09 10:00:08;;;;;;;6.40;1.90;;;;;;;35.19;26.16;99027.41;5048672;28;20026;-51
2021/08/09 10:02:34;;;;;;;5.40;1.90;;;;;;;34.85;26.53;99023.50;5033642;28;20112;-51
2021/08/09 10:05:01;;;;;;;5.85;1.70;;;;;;;35.50;25.60;99017.53;5033541;28;20112;-52
2021/08/09 10:07:30;;;;;;;4.80;1.50;;;;;;;35.81;24.76;99016.59;5033298;28;20025;-51
2021/08/09 10:10:00;;;;;;;9.65;1.77;;;;;;;36.04;24.87;99018.56;5033100;28;20030;-51
2021/08/09 10:12:30;;;;;;;14.48;2.10;;;;;;;35.49;25.04;99013.22;5033082;28;20029;-52
2021/08/09 10:14:58;;;;;;;4.80;2.30;;;;;;;34.34;26.02;99005.94;5033086;28;20045;-51
2021/08/09 10:17:25;;;;;;;4.95;1.80;;;;;;;34.13;26.93;99005.34;5033302;28;20017;-52
2021/08/09 10:19:54;;;;;;;5.93;1.90;;;;;;;34.29;26.39;99005.41;5032986;28;20029;-51
2021/08/09 10:22:21;;;;;;;4.65;1.70;;;;;;;33.75;26.90;99004.00;5032490;28;20057;-52
2021/08/09 10:24:50;;;;;;;6.80;2.50;;;;;;;33.40;27.57;99001.81;5033153;28;20048;-51
2021/08/09 10:27:16;;;;;;;6.07;2.40;;;;;;;33.33;27.67;99004.34;5032724;28;20040;-49
2021/08/09 10:30:00;;;;;;;5.53;1.95;;;;;;;33.29;27.52;98998.00;5032805;28;20025;-50
2021/08/09 10:32:26;;;;;;;7.78;2.97;;;;;;;33.16;28.47;98991.78;5048105;28;20534;-49
2021/08/09 10:34:52;;;;;;;5.28;1.95;;;;;;;32.97;27.69;99003.25;5032656;28;20132;-49
2021/08/09 10:37:22;;;;;;;6.85;2.95;;;;;;;32.37;29.20;99000.16;5047915;28;20017;-51
2021/08/09 10:39:52;;;;;;;6.35;1.85;;;;;;;32.19;30.09;98999.56;5032658;28;20037;-52
2021/08/09 10:42:36;;;;;;;2.58;1.85;;;;;;;33.43;28.36;99001.13;5032414;28;20108;-51
2021/08/09 10:45:06;;;;;;;4.63;1.63;;;;;;;34.40;25.58;99001.78;5032509;28;20548;-52
2021/08/09 10:47:52;;;;;;;7.05;1.90;;;;;;;34.63;25.49;98992.97;5032798;28;20030;-51
2021/08/09 10:50:24;;;;;;;3.97;1.83;;;;;;;34.97;24.83;98999.66;5032623;28;20025;-49
2021/08/09 10:52:51;;;;;;;8.55;3.08;;;;;;;35.50;24.49;99001.16;5032372;28;20029;-51
2021/08/09 10:55:32;;;;;;;5.13;1.30;;;;;;;36.37;23.13;98999.66;5031044;28;20030;-51
2021/08/09 10:58:03;;;;;;;8.57;1.35;;;;;;;36.79;22.12;98993.31;5032574;28;20113;-52
2021/08/09 11:00:40;;;;;;;3.42;1.30;;;;;;;36.41;22.36;98985.28;5032266;28;20044;-51
2021/08/09 11:03:14;;;;;;;4.45;2.00;;;;;;;35.97;22.88;98992.69;5032114;28;20029;-51
2021/08/09 11:05:40;;;;;;;4.38;1.83;;;;;;;36.27;22.92;98999.50;5032267;28;20491;-52
2021/08/09 11:08:18;;;;;;;6.40;1.40;;;;;;;36.42;22.71;98986.84;5047404;28;20033;-50
2021/08/09 11:11:07;;;;;;;5.22;2.70;;;;;;;36.29;22.53;98988.97;5032073;28;20518;-52
2021/08/09 11:13:41;;;;;;;9.02;5.85;;;;;;;35.63;23.30;98983.47;5032403;28;20025;-52
2021/08/09 11:16:07;;;;;;;9.10;3.63;;;;;;;35.08;23.81;98982.72;5031965;28;20032;-51
2021/08/09 11:18:36;;;;;;;4.35;1.98;;;;;;;34.87;23.53;98977.59;5031991;28;20387;-52
2021/08/09 11:21:03;;;;;;;6.05;1.50;;;;;;;34.58;23.33;98968.72;5031656;28;20099;-49
2021/08/09 11:23:50;;;;;;;4.05;2.33;;;;;;;34.09;23.39;98963.59;5032141;28;20060;-50
2021/08/09 11:26:19;;;;;;;7.95;2.97;;;;;;;33.89;23.72;98963.53;5032154;28;20036;-49
2021/08/09 11:28:57;;;;;;;6.05;1.73;;;;;;;33.57;24.41;98965.38;5032121;28;20025;-52
2021/08/09 11:31:23;;;;;;;2.78;1.65;;;;;;;33.26;25.61;98974.19;5031904;28;20031;-52
2021/08/09 11:33:49;;;;;;;2.72;1.40;;;;;;;32.89;25.62;98964.16;5031210;28;20108;-50